Weather reports worldwide

Advertisment
Newcastle, United Kingdom (3245): temperature & dewpoint: 09.12.2018 21:00:00 - 15.12.2018 21:00:00 (GMT)Newcastle, United Kingdom (3245): wind speed: 09.12.2018 21:00:00 - 15.12.2018 21:00:00 (GMT)Newcastle, United Kingdom (3245): wind direction: 09.12.2018 21:00:00 - 15.12.2018 21:00:00 (GMT)Newcastle, United Kingdom (3245): visibility: 09.12.2018 21:00:00 - 15.12.2018 21:00:00 (GMT)
Date & Time tt [°C] td [°C] ff [km/h] ff [kn] dd vv [km]
15.12.2018 21:00:00 2,0 1,0 22 12 SE 10
15.12.2018 20:00:00 1,0 0,0 22 12 SE 2,0
15.12.2018 19:00:00 1,0 1,0 22 12 SE 9
15.12.2018 18:00:00 1,0 0,0 24 13 SE 8
15.12.2018 17:00:00 1,0 -1,0 22 12 SE 10
15.12.2018 16:00:00 1,0 -1,0 28 15 SE 6
15.12.2018 15:00:00 1,0 -2,0 24 13 SE 10
15.12.2018 14:00:00 1,0 -3,0 22 12 SE 10
15.12.2018 13:00:00 1,0 -3,0 22 12 SE 10
15.12.2018 12:00:00 1,0 -4,0 21 11 SE 10
15.12.2018 11:00:00 1,0 -4,0 24 13 SE 10
15.12.2018 10:00:00 1,0 -4,0 18 10 SSE 10
15.12.2018 09:00:00 1,0 -4,0 13 7 SSE 10
15.12.2018 08:00:00 2,0 -4,0 21 11 SSE 10
15.12.2018 07:00:00 2,0 -4,0 18 10 SSE 10
15.12.2018 06:00:00 2,0 -4,0 18 10 SSE 10
15.12.2018 05:00:00 2,0 -4,0 15 8 SSE 10
15.12.2018 04:00:00 2,0 -3,0 13 7 SE 10
15.12.2018 03:00:00 1,0 -2,0 11 6 S 10
15.12.2018 02:00:00 0,0 -1,0 8 4 SSE 10
15.12.2018 01:00:00 0,0 -1,0 11 6 SSE 10
15.12.2018 00:00:00 0,0 -1,0 13 7 S 10
14.12.2018 23:00:00 0,0 -2,0 11 6 SSE 10
14.12.2018 22:00:00 1,0 -2,0 11 6 S 10
14.12.2018 21:00:00 1,0 -2,0 11 6 S 10
14.12.2018 20:00:00 2,0 -2,0 9 5 SSE 10
14.12.2018 19:00:00 1,0 -1,0 8 4 SSE 10
14.12.2018 18:00:00 1,0 -1,0 8 4 SE 10
14.12.2018 17:00:00 1,0 -1,0 8 4 ESE 10
14.12.2018 16:00:00 2,0 -1,0 9 5 S 10
14.12.2018 15:00:00 4,0 -1,0 8 4 SSE 10
14.12.2018 14:00:00 4,0 -1,0 8 4 SSE 10
14.12.2018 13:00:00 4,0 -1,0 13 7 S 10
14.12.2018 12:00:00 4,0 0,0 8 4 S 10
14.12.2018 11:00:00 3,0 0,0 8 4 S 10
14.12.2018 10:00:00 1,0 0,0 2 1 - 10
14.12.2018 09:00:00 -1,0 -1,0 4 2 - 10
14.12.2018 08:00:00 -1,0 -2,0 2 1 - 10
14.12.2018 07:00:00 1,0 -2,0 2 1 - 10
14.12.2018 06:00:00 0,0 -1,0 4 2 - 10
14.12.2018 05:00:00 -2,0 -3,0 5 3 ENE 10
14.12.2018 04:00:00 -1,0 -4,0 4 2 - 10
14.12.2018 03:00:00 2,0 -2,0 5 3 ESE 10
14.12.2018 02:00:00 4,0 -2,0 11 6 SE 10
14.12.2018 01:00:00 4,0 -2,0 9 5 S 10
14.12.2018 00:00:00 5,0 -3,0 11 6 SSE 10
13.12.2018 23:00:00 5,0 -2,0 13 7 SSE 10
13.12.2018 22:00:00 5,0 -2,0 9 5 SSE 10
13.12.2018 21:00:00 5,0 0,0 8 4 SSE 10
13.12.2018 20:00:00 5,0 -1,0 9 5 SE 10
13.12.2018 19:00:00 5,0 0,0 9 5 SE 10
13.12.2018 18:00:00 5,0 1,0 9 5 SSE 10
13.12.2018 17:00:00 5,0 1,0 8 4 SE 10
13.12.2018 16:00:00 6,0 0,0 11 6 SE 10
13.12.2018 15:00:00 6,0 0,0 11 6 SE 10
13.12.2018 14:00:00 6,0 0,0 13 7 SE 10
13.12.2018 13:00:00 6,0 -1,0 13 7 SSE 10
13.12.2018 12:00:00 5,0 -1,0 16 9 SSE 10
13.12.2018 11:00:00 5,0 -2,0 16 9 SSE 10
13.12.2018 10:00:00 5,0 -1,0 13 7 SSE 10
13.12.2018 09:00:00 5,0 -1,0 13 7 SSE 10
13.12.2018 08:00:00 5,0 -1,0 13 7 SE 10
13.12.2018 07:00:00 5,0 -1,0 13 7 SSE 10
13.12.2018 06:00:00 5,0 -1,0 16 9 SE 10
13.12.2018 05:00:00 5,0 -1,0 18 10 SE 10
13.12.2018 04:00:00 - - - - - -
13.12.2018 03:00:00 4,0 1,0 13 7 SE 10
13.12.2018 02:00:00 - - - - - -
13.12.2018 01:00:00 4,0 -1,0 9 5 SSE 10
13.12.2018 00:00:00 4,0 -2,0 11 6 SE 10
12.12.2018 23:00:00 3,0 -2,0 13 7 SE 10
12.12.2018 22:00:00 4,0 -3,0 13 7 SSE 10
12.12.2018 21:00:00 4,0 -2,0 15 8 SE 10
12.12.2018 20:00:00 3,0 -1,0 11 6 SE 10
12.12.2018 19:00:00 4,0 -1,0 15 8 SE 10
12.12.2018 18:00:00 4,0 0,0 13 7 SE 10
12.12.2018 17:00:00 5,0 0,0 11 6 SSE 10
12.12.2018 16:00:00 6,0 0,0 13 7 SSE 10
12.12.2018 15:00:00 6,0 1,0 11 6 SSE 10
12.12.2018 14:00:00 7,0 1,0 11 6 SSE 10
12.12.2018 13:00:00 7,0 2,0 11 6 SSE 10
12.12.2018 12:00:00 6,0 2,0 11 6 SSE 10
12.12.2018 11:00:00 6,0 2,0 11 6 SE 10
12.12.2018 10:00:00 6,0 3,0 9 5 SSE 10
12.12.2018 09:00:00 5,0 3,0 8 4 SSE 9
12.12.2018 08:00:00 5,0 3,0 5 3 - 8
12.12.2018 07:00:00 5,0 3,0 8 4 SSE 8
12.12.2018 06:00:00 5,0 3,0 9 5 SSE 6
12.12.2018 05:00:00 5,0 3,0 9 5 SSE 4,2
12.12.2018 04:00:00 - - - - - -
12.12.2018 03:00:00 5,0 4,0 11 6 S 3,0
12.12.2018 02:00:00 4,0 4,0 11 6 SSE 2,3
12.12.2018 01:00:00 4,0 4,0 13 7 SSE 4,6
12.12.2018 00:00:00 5,0 4,0 16 9 SSE 2,1
11.12.2018 23:00:00 5,0 4,0 11 6 SSE 2,7
11.12.2018 22:00:00 5,0 4,0 13 7 S 2,2
11.12.2018 21:00:00 5,0 4,0 11 6 S 2,8
11.12.2018 20:00:00 4,0 4,0 9 5 S 3,5
11.12.2018 19:00:00 4,0 4,0 11 6 S 6
11.12.2018 18:00:00 4,0 3,0 9 5 SSE 7
11.12.2018 17:00:00 6,0 4,0 8 4 SE 7
11.12.2018 16:00:00 6,0 4,0 8 4 SE 7
11.12.2018 15:00:00 6,0 4,0 5 3 - 9
11.12.2018 14:00:00 - - - - - -
11.12.2018 13:00:00 6,0 4,0 8 4 SE 5
11.12.2018 12:00:00 5,0 4,0 9 5 SE 6
11.12.2018 11:00:00 5,0 4,0 5 3 - 7
11.12.2018 10:00:00 4,0 3,0 5 3 - 7
11.12.2018 09:00:00 2,0 1,0 8 4 ESE 10
11.12.2018 08:00:00 3,0 2,0 9 5 SE 10
11.12.2018 07:00:00 2,0 2,0 8 4 SE 10
11.12.2018 06:00:00 1,0 1,0 5 3 SE 10
11.12.2018 05:00:00 0,0 0,0 2 1 E 10
11.12.2018 04:00:00 -1,0 -1,0 0 0 N 10
11.12.2018 03:00:00 -1,0 -1,0 0 0 N 10
11.12.2018 02:00:00 -2,0 -2,0 0 0 N 10
11.12.2018 01:00:00 -1,0 -1,0 2 1 WSW 10
11.12.2018 00:00:00 -2,0 -2,0 0 0 N 10
10.12.2018 23:00:00 -1,0 -1,0 0 0 N 10
10.12.2018 22:00:00 0,0 0,0 0 0 N 10
10.12.2018 21:00:00 1,0 0,0 2 1 WSW 10
10.12.2018 20:00:00 1,0 1,0 2 1 W 10
10.12.2018 19:00:00 1,0 1,0 4 2 SSW 10
10.12.2018 18:00:00 0,0 0,0 0 0 N 10
10.12.2018 17:00:00 0,0 -1,0 0 0 N 10
10.12.2018 16:00:00 1,0 0,0 8 4 W 10
10.12.2018 15:00:00 3,0 1,0 8 4 W 10
10.12.2018 14:00:00 6,0 1,0 9 5 WNW 10
10.12.2018 13:00:00 5,0 2,0 8 4 WNW 10
10.12.2018 12:00:00 5,0 2,0 9 5 W 10
10.12.2018 11:00:00 3,0 1,0 11 6 W 10
10.12.2018 10:00:00 2,0 1,0 11 6 W 10
10.12.2018 09:00:00 0,0 0,0 4 2 W 10
10.12.2018 08:00:00 -1,0 -1,0 9 5 W 10
10.12.2018 07:00:00 0,0 0,0 5 3 W 10
10.12.2018 06:00:00 0,0 -1,0 11 6 W 10
10.12.2018 05:00:00 1,0 0,0 15 8 W 10
10.12.2018 04:00:00 1,0 0,0 8 4 NW 10
10.12.2018 03:00:00 1,0 0,0 9 5 W 10
10.12.2018 02:00:00 0,0 -1,0 11 6 W 10
10.12.2018 01:00:00 1,0 0,0 9 5 W 10
10.12.2018 00:00:00 1,0 0,0 13 7 W 10
09.12.2018 23:00:00 1,0 0,0 16 9 W 10
09.12.2018 22:00:00 1,0 0,0 13 7 W 10
09.12.2018 21:00:00 2,0 0,0 15 8 W 10

tt = temperature
td = dewpoint
ff = wind speed
dd = wind direction
vv = visibility

Next stations